sensor_id;sensor_type;location;lat;lon;timestamp;pressure;altitude;pressure_sealevel;temperature;humidity
27643;BME280;15053;48.618;10.024;2024-03-23T00:55:43;93614.97;;;10.89;65.08
27643;BME280;15053;48.618;10.024;2024-03-23T00:58:09;93613.00;;;10.94;65.09
27643;BME280;15053;48.618;10.024;2024-03-23T01:00:35;93609.97;;;11.01;64.46
27643;BME280;15053;48.618;10.024;2024-03-23T01:03:00;93603.53;;;11.07;64.29
27643;BME280;15053;48.618;10.024;2024-03-23T01:05:26;93596.94;;;11.09;63.93
27643;BME280;15053;48.618;10.024;2024-03-23T01:07:52;93603.50;;;11.15;64.03
27643;BME280;15053;48.618;10.024;2024-03-23T01:10:17;93593.25;;;11.19;64.08
27643;BME280;15053;48.618;10.024;2024-03-23T01:12:43;93585.59;;;11.22;63.92
27643;BME280;15053;48.618;10.024;2024-03-23T01:15:08;93593.41;;;11.22;64.26
27643;BME280;15053;48.618;10.024;2024-03-23T01:17:34;93586.81;;;11.25;64.91
27643;BME280;15053;48.618;10.024;2024-03-23T01:20:00;93582.06;;;11.27;64.58
27643;BME280;15053;48.618;10.024;2024-03-23T01:22:25;93583.59;;;11.28;64.53
27643;BME280;15053;48.618;10.024;2024-03-23T01:24:51;93580.69;;;11.30;64.86
27643;BME280;15053;48.618;10.024;2024-03-23T01:27:16;93566.59;;;11.31;64.66
27643;BME280;15053;48.618;10.024;2024-03-23T01:29:42;93574.25;;;11.36;65.00
27643;BME280;15053;48.618;10.024;2024-03-23T01:32:07;93568.25;;;11.35;65.02
27643;BME280;15053;48.618;10.024;2024-03-23T01:34:33;93567.66;;;11.38;64.61
27643;BME280;15053;48.618;10.024;2024-03-23T01:36:59;93554.94;;;11.37;64.95
27643;BME280;15053;48.618;10.024;2024-03-23T01:39:25;93561.06;;;11.41;65.04
27643;BME280;15053;48.618;10.024;2024-03-23T01:41:50;93551.22;;;11.46;65.27
27643;BME280;15053;48.618;10.024;2024-03-23T01:44:16;93558.44;;;11.49;64.54
27643;BME280;15053;48.618;10.024;2024-03-23T01:46:43;93554.75;;;11.50;64.90
27643;BME280;15053;48.618;10.024;2024-03-23T01:49:09;93546.63;;;11.52;64.62
27643;BME280;15053;48.618;10.024;2024-03-23T01:51:36;93547.06;;;11.54;64.51
27643;BME280;15053;48.618;10.024;2024-03-23T01:54:03;93546.78;;;11.55;64.75
27643;BME280;15053;48.618;10.024;2024-03-23T01:56:29;93545.22;;;11.54;64.50
27643;BME280;15053;48.618;10.024;2024-03-23T01:58:58;93531.13;;;11.55;64.64
27643;BME280;15053;48.618;10.024;2024-03-23T02:01:23;93537.88;;;11.56;64.62
27643;BME280;15053;48.618;10.024;2024-03-23T02:03:49;93523.59;;;11.54;64.30
27643;BME280;15053;48.618;10.024;2024-03-23T02:06:14;93521.16;;;11.57;64.38
27643;BME280;15053;48.618;10.024;2024-03-23T02:08:40;93529.13;;;11.61;64.47
27643;BME280;15053;48.618;10.024;2024-03-23T02:11:06;93518.38;;;11.62;64.83
27643;BME280;15053;48.618;10.024;2024-03-23T02:13:31;93494.78;;;11.59;64.90
27643;BME280;15053;48.618;10.024;2024-03-23T02:15:57;93500.59;;;11.64;65.00
27643;BME280;15053;48.618;10.024;2024-03-23T02:18:23;93495.81;;;11.66;65.29
27643;BME280;15053;48.618;10.024;2024-03-23T02:20:49;93510.88;;;11.69;65.50
27643;BME280;15053;48.618;10.024;2024-03-23T02:23:15;93503.06;;;11.69;65.12
27643;BME280;15053;48.618;10.024;2024-03-23T02:25:40;93491.53;;;11.70;65.51
27643;BME280;15053;48.618;10.024;2024-03-23T02:28:06;93482.78;;;11.66;65.09
27643;BME280;15053;48.618;10.024;2024-03-23T02:30:32;93475.72;;;11.67;65.63
27643;BME280;15053;48.618;10.024;2024-03-23T02:32:57;93480.78;;;11.72;65.39
27643;BME280;15053;48.618;10.024;2024-03-23T02:35:23;93476.47;;;11.76;65.48
27643;BME280;15053;48.618;10.024;2024-03-23T02:37:49;93475.72;;;11.75;66.12
27643;BME280;15053;48.618;10.024;2024-03-23T02:40:15;93482.00;;;11.74;65.60
27643;BME280;15053;48.618;10.024;2024-03-23T02:42:41;93478.34;;;11.75;66.21
27643;BME280;15053;48.618;10.024;2024-03-23T02:45:07;93465.75;;;11.77;66.73
27643;BME280;15053;48.618;10.024;2024-03-23T02:47:33;93469.84;;;11.78;66.79
27643;BME280;15053;48.618;10.024;2024-03-23T02:49:59;93448.53;;;11.76;66.74
27643;BME280;15053;48.618;10.024;2024-03-23T02:52:24;93464.50;;;11.83;66.85
27643;BME280;15053;48.618;10.024;2024-03-23T02:54:50;93454.94;;;11.88;67.06
27643;BME280;15053;48.618;10.024;2024-03-23T02:57:15;93446.81;;;11.89;66.91
27643;BME280;15053;48.618;10.024;2024-03-23T02:59:41;93451.09;;;11.94;66.98
27643;BME280;15053;48.618;10.024;2024-03-23T03:02:07;93441.88;;;11.96;67.13
27643;BME280;15053;48.618;10.024;2024-03-23T03:04:32;93436.31;;;11.98;66.34
27643;BME280;15053;48.618;10.024;2024-03-23T03:06:58;93440.03;;;11.97;66.87
27643;BME280;15053;48.618;10.024;2024-03-23T03:09:23;93435.88;;;11.96;67.14
27643;BME280;15053;48.618;10.024;2024-03-23T03:11:49;93439.59;;;11.95;67.12
27643;BME280;15053;48.618;10.024;2024-03-23T03:14:15;93444.34;;;11.93;66.94
27643;BME280;15053;48.618;10.024;2024-03-23T03:16:40;93444.03;;;11.94;67.46
27643;BME280;15053;48.618;10.024;2024-03-23T03:19:06;93440.03;;;11.97;67.26
27643;BME280;15053;48.618;10.024;2024-03-23T03:21:32;93431.56;;;12.00;66.82
27643;BME280;15053;48.618;10.024;2024-03-23T03:23:58;93424.94;;;12.02;67.11
27643;BME280;15053;48.618;10.024;2024-03-23T03:26:23;93425.72;;;12.03;67.10
27643;BME280;15053;48.618;10.024;2024-03-23T03:28:50;93418.97;;;12.02;67.64
27643;BME280;15053;48.618;10.024;2024-03-23T03:31:16;93414.81;;;12.01;67.29
27643;BME280;15053;48.618;10.024;2024-03-23T03:33:42;93415.28;;;12.03;67.45
27643;BME280;15053;48.618;10.024;2024-03-23T03:36:07;93417.56;;;12.04;67.03
27643;BME280;15053;48.618;10.024;2024-03-23T03:38:33;93417.56;;;12.04;67.65
27643;BME280;15053;48.618;10.024;2024-03-23T03:41:01;93408.97;;;12.04;67.46
27643;BME280;15053;48.618;10.024;2024-03-23T03:43:27;93411.47;;;12.00;67.08
27643;BME280;15053;48.618;10.024;2024-03-23T03:45:53;93408.38;;;11.98;67.69
27643;BME280;15053;48.618;10.024;2024-03-23T03:48:19;93400.88;;;11.97;67.56
27643;BME280;15053;48.618;10.024;2024-03-23T03:50:45;93385.09;;;11.93;67.49
27643;BME280;15053;48.618;10.024;2024-03-23T03:53:11;93402.91;;;11.91;68.07
27643;BME280;15053;48.618;10.024;2024-03-23T03:55:36;93392.31;;;11.88;68.41
27643;BME280;15053;48.618;10.024;2024-03-23T03:58:02;93399.38;;;11.87;68.32
27643;BME280;15053;48.618;10.024;2024-03-23T04:00:28;93392.19;;;11.84;68.72
27643;BME280;15053;48.618;10.024;2024-03-23T04:02:53;93391.31;;;11.80;68.74
27643;BME280;15053;48.618;10.024;2024-03-23T04:05:19;93384.53;;;11.79;69.01
27643;BME280;15053;48.618;10.024;2024-03-23T04:07:45;93376.13;;;11.73;69.18
27643;BME280;15053;48.618;10.024;2024-03-23T04:10:11;93382.13;;;11.74;69.19
27643;BME280;15053;48.618;10.024;2024-03-23T04:12:37;93386.44;;;11.70;69.52
27643;BME280;15053;48.618;10.024;2024-03-23T04:15:03;93386.28;;;11.66;69.32
27643;BME280;15053;48.618;10.024;2024-03-23T04:17:31;93366.03;;;11.63;69.83
27643;BME280;15053;48.618;10.024;2024-03-23T04:20:00;93357.31;;;11.59;70.20
27643;BME280;15053;48.618;10.024;2024-03-23T04:22:26;93373.91;;;11.55;70.18
27643;BME280;15053;48.618;10.024;2024-03-23T04:24:58;93371.75;;;11.48;70.08
27643;BME280;15053;48.618;10.024;2024-03-23T04:27:24;93364.75;;;11.40;70.32
27643;BME280;15053;48.618;10.024;2024-03-23T04:29:50;93354.50;;;11.35;70.74
27643;BME280;15053;48.618;10.024;2024-03-23T04:32:16;93354.69;;;11.30;71.24
27643;BME280;15053;48.618;10.024;2024-03-23T04:34:42;93345.03;;;11.22;71.35
27643;BME280;15053;48.618;10.024;2024-03-23T04:37:09;93343.38;;;11.17;71.67
27643;BME280;15053;48.618;10.024;2024-03-23T04:39:36;93335.09;;;11.15;71.56
27643;BME280;15053;48.618;10.024;2024-03-23T04:42:03;93325.63;;;11.11;72.22
27643;BME280;15053;48.618;10.024;2024-03-23T04:44:29;93324.25;;;11.05;72.55
27643;BME280;15053;48.618;10.024;2024-03-23T04:46:59;93322.75;;;11.04;72.74
27643;BME280;15053;48.618;10.024;2024-03-23T04:49:25;93311.56;;;11.03;72.97
27643;BME280;15053;48.618;10.024;2024-03-23T04:51:51;93302.53;;;11.01;73.15
27643;BME280;15053;48.618;10.024;2024-03-23T04:54:17;93298.69;;;10.98;73.40
27643;BME280;15053;48.618;10.024;2024-03-23T04:56:42;93289.03;;;10.99;73.43
27643;BME280;15053;48.618;10.024;2024-03-23T04:59:08;93287.50;;;10.98;73.72
27643;BME280;15053;48.618;10.024;2024-03-23T05:01:34;93268.06;;;10.95;73.27
27643;BME280;15053;48.618;10.024;2024-03-23T05:04:02;93286.41;;;10.99;73.63
27643;BME280;15053;48.618;10.024;2024-03-23T05:06:27;93268.19;;;10.99;73.97
27643;BME280;15053;48.618;10.024;2024-03-23T05:08:53;93266.34;;;10.99;73.66
27643;BME280;15053;48.618;10.024;2024-03-23T05:11:18;93257.03;;;10.98;74.03
27643;BME280;15053;48.618;10.024;2024-03-23T05:13:45;93261.47;;;10.98;74.49
27643;BME280;15053;48.618;10.024;2024-03-23T05:16:11;93253.66;;;10.98;74.51
27643;BME280;15053;48.618;10.024;2024-03-23T05:18:36;93252.09;;;10.97;74.61
27643;BME280;15053;48.618;10.024;2024-03-23T05:21:02;93243.66;;;11.00;74.94
27643;BME280;15053;48.618;10.024;2024-03-23T05:23:28;93250.41;;;11.01;75.24
27643;BME280;15053;48.618;10.024;2024-03-23T05:25:54;93244.09;;;11.02;75.41
27643;BME280;15053;48.618;10.024;2024-03-23T05:28:21;93246.56;;;11.07;75.00
27643;BME280;15053;48.618;10.024;2024-03-23T05:30:53;93242.25;;;11.11;75.22
27643;BME280;15053;48.618;10.024;2024-03-23T05:33:20;93231.47;;;11.12;75.01
27643;BME280;15053;48.618;10.024;2024-03-23T05:35:47;93232.25;;;11.13;75.31
27643;BME280;15053;48.618;10.024;2024-03-23T05:38:21;93235.34;;;11.15;75.23
27643;BME280;15053;48.618;10.024;2024-03-23T05:40:59;93241.44;;;11.19;74.97
27643;BME280;15053;48.618;10.024;2024-03-23T05:43:26;93237.75;;;11.20;75.07
27643;BME280;15053;48.618;10.024;2024-03-23T05:48:20;93225.31;;;11.25;74.33
27643;BME280;15053;48.618;10.024;2024-03-23T05:50:47;93221.75;;;11.30;74.79
27643;BME280;15053;48.618;10.024;2024-03-23T05:53:13;93225.38;;;11.38;74.11
27643;BME280;15053;48.618;10.024;2024-03-23T05:55:38;93246.19;;;11.46;74.22
27643;BME280;15053;48.618;10.024;2024-03-23T05:58:04;93246.13;;;11.55;72.77
27643;BME280;15053;48.618;10.024;2024-03-23T06:00:29;93294.41;;;11.61;73.12
27643;BME280;15053;48.618;10.024;2024-03-23T06:02:55;93289.50;;;11.59;73.85
27643;BME280;15053;48.618;10.024;2024-03-23T06:05:20;93280.16;;;11.58;75.04
27643;BME280;15053;48.618;10.024;2024-03-23T06:07:46;93302.28;;;11.52;76.33
27643;BME280;15053;48.618;10.024;2024-03-23T06:10:11;93303.28;;;11.39;80.19
27643;BME280;15053;48.618;10.024;2024-03-23T06:12:37;93305.78;;;11.27;82.14
27643;BME280;15053;48.618;10.024;2024-03-23T06:15:03;93346.28;;;11.16;84.78
27643;BME280;15053;48.618;10.024;2024-03-23T06:17:28;93330.69;;;10.99;87.50
27643;BME280;15053;48.618;10.024;2024-03-23T06:19:54;93347.31;;;10.77;88.84
27643;BME280;15053;48.618;10.024;2024-03-23T06:22:19;93345.66;;;10.55;91.09
27643;BME280;15053;48.618;10.024;2024-03-23T06:24:46;93369.25;;;10.33;93.01
27643;BME280;15053;48.618;10.024;2024-03-23T06:27:11;93359.28;;;10.09;93.69
27643;BME280;15053;48.618;10.024;2024-03-23T06:29:37;93355.25;;;9.86;93.69
27643;BME280;15053;48.618;10.024;2024-03-23T06:32:02;93380.94;;;9.71;94.37
27643;BME280;15053;48.618;10.024;2024-03-23T06:34:29;93370.00;;;9.52;94.86
27643;BME280;15053;48.618;10.024;2024-03-23T06:36:54;93368.28;;;9.38;96.85
27643;BME280;15053;48.618;10.024;2024-03-23T06:39:20;93386.28;;;9.26;96.87
27643;BME280;15053;48.618;10.024;2024-03-23T06:41:52;93388.81;;;9.18;99.55
27643;BME280;15053;48.618;10.024;2024-03-23T06:44:18;93382.19;;;9.03;100.00
27643;BME280;15053;48.618;10.024;2024-03-23T06:46:45;93384.22;;;9.06;100.00
27643;BME280;15053;48.618;10.024;2024-03-23T06:49:11;93397.44;;;8.96;100.00
27643;BME280;15053;48.618;10.024;2024-03-23T06:51:36;93386.13;;;8.92;100.00
27643;BME280;15053;48.618;10.024;2024-03-23T06:54:03;93385.47;;;8.86;100.00
27643;BME280;15053;48.618;10.024;2024-03-23T06:56:29;93405.00;;;8.84;100.00
27643;BME280;15053;48.618;10.024;2024-03-23T06:58:56;93405.09;;;8.79;100.00
27643;BME280;15053;48.618;10.024;2024-03-23T07:01:21;93414.56;;;8.75;100.00
27643;BME280;15053;48.618;10.024;2024-03-23T07:03:47;93431.78;;;8.71;100.00
27643;BME280;15053;48.618;10.024;2024-03-23T07:06:12;93431.88;;;8.66;99.59
27643;BME280;15053;48.618;10.024;2024-03-23T07:08:38;93428.66;;;8.60;99.88
27643;BME280;15053;48.618;10.024;2024-03-23T07:11:03;93415.50;;;8.57;97.64
27643;BME280;15053;48.618;10.024;2024-03-23T07:13:30;93412.72;;;8.53;96.99
27643;BME280;15053;48.618;10.024;2024-03-23T07:15:56;93411.03;;;8.49;97.50
27643;BME280;15053;48.618;10.024;2024-03-23T07:18:23;93406.88;;;8.48;98.27
27643;BME280;15053;48.618;10.024;2024-03-23T07:20:55;93392.84;;;8.49;98.41
27643;BME280;15053;48.618;10.024;2024-03-23T07:23:24;93406.47;;;8.54;99.29
27643;BME280;15053;48.618;10.024;2024-03-23T07:28:22;93399.56;;;8.50;98.32
27643;BME280;15053;48.618;10.024;2024-03-23T07:30:48;93407.66;;;8.48;98.16
27643;BME280;15053;48.618;10.024;2024-03-23T07:33:13;93429.19;;;8.49;97.90
27643;BME280;15053;48.618;10.024;2024-03-23T07:35:39;93429.78;;;8.46;97.80
27643;BME280;15053;48.618;10.024;2024-03-23T07:38:04;93426.69;;;8.44;96.38
27643;BME280;15053;48.618;10.024;2024-03-23T07:40:31;93409.53;;;8.34;95.37
27643;BME280;15053;48.618;10.024;2024-03-23T07:42:56;93409.22;;;8.36;96.02
27643;BME280;15053;48.618;10.024;2024-03-23T07:45:22;93423.44;;;8.38;96.62
27643;BME280;15053;48.618;10.024;2024-03-23T07:47:47;93441.13;;;8.36;94.90
27643;BME280;15053;48.618;10.024;2024-03-23T07:50:13;93431.13;;;8.29;95.26
27643;BME280;15053;48.618;10.024;2024-03-23T07:52:38;93457.66;;;8.26;95.00
27643;BME280;15053;48.618;10.024;2024-03-23T07:55:04;93448.63;;;8.24;94.48
27643;BME280;15053;48.618;10.024;2024-03-23T07:57:30;93475.41;;;8.33;95.77
27643;BME280;15053;48.618;10.024;2024-03-23T07:59:55;93509.13;;;8.47;93.76
27643;BME280;15053;48.618;10.024;2024-03-23T08:02:21;93478.19;;;8.50;93.39
27643;BME280;15053;48.618;10.024;2024-03-23T08:04:47;93483.13;;;8.60;93.44
27643;BME280;15053;48.618;10.024;2024-03-23T08:07:12;93464.50;;;8.58;92.87
27643;BME280;15053;48.618;10.024;2024-03-23T08:09:38;93470.47;;;8.59;92.27
27643;BME280;15053;48.618;10.024;2024-03-23T08:12:03;93477.94;;;8.60;92.82
27643;BME280;15053;48.618;10.024;2024-03-23T08:14:29;93496.97;;;8.69;92.41
27643;BME280;15053;48.618;10.024;2024-03-23T08:16:54;93480.69;;;8.77;91.44
27643;BME280;15053;48.618;10.024;2024-03-23T08:19:20;93481.94;;;8.80;90.48
27643;BME280;15053;48.618;10.024;2024-03-23T08:21:46;93474.34;;;8.83;91.76
27643;BME280;15053;48.618;10.024;2024-03-23T08:24:11;93480.06;;;8.94;91.61
27643;BME280;15053;48.618;10.024;2024-03-23T08:26:37;93492.44;;;8.97;91.13
27643;BME280;15053;48.618;10.024;2024-03-23T08:29:03;93501.47;;;9.00;89.61
27643;BME280;15053;48.618;10.024;2024-03-23T08:31:29;93500.72;;;8.99;89.15
27643;BME280;15053;48.618;10.024;2024-03-23T08:33:54;93501.88;;;8.93;89.49
27643;BME280;15053;48.618;10.024;2024-03-23T08:36:20;93525.97;;;9.07;89.01
27643;BME280;15053;48.618;10.024;2024-03-23T08:38:45;93511.34;;;9.11;88.35
27643;BME280;15053;48.618;10.024;2024-03-23T08:41:11;93526.22;;;9.19;88.20
27643;BME280;15053;48.618;10.024;2024-03-23T08:43:41;93539.34;;;9.14;87.51
27643;BME280;15053;48.618;10.024;2024-03-23T08:46:11;93544.00;;;9.04;87.77
27643;BME280;15053;48.618;10.024;2024-03-23T08:48:42;93569.19;;;9.03;89.32
27643;BME280;15053;48.618;10.024;2024-03-23T08:51:10;93554.78;;;8.97;90.52
27643;BME280;15053;48.618;10.024;2024-03-23T08:53:36;93563.25;;;8.89;91.15
27643;BME280;15053;48.618;10.024;2024-03-23T08:56:02;93571.34;;;8.74;90.30
27643;BME280;15053;48.618;10.024;2024-03-23T08:58:30;93586.78;;;8.57;92.37
27643;BME280;15053;48.618;10.024;2024-03-23T09:00:57;93561.69;;;8.39;92.73
27643;BME280;15053;48.618;10.024;2024-03-23T09:03:27;93561.41;;;8.26;93.85
27643;BME280;15053;48.618;10.024;2024-03-23T09:05:53;93573.97;;;8.19;94.33
27643;BME280;15053;48.618;10.024;2024-03-23T09:08:21;93601.63;;;8.10;93.48
27643;BME280;15053;48.618;10.024;2024-03-23T09:10:47;93622.56;;;8.00;95.47
27643;BME280;15053;48.618;10.024;2024-03-23T09:13:13;93637.41;;;7.95;95.17
27643;BME280;15053;48.618;10.024;2024-03-23T09:15:46;93630.03;;;7.88;95.64
27643;BME280;15053;48.618;10.024;2024-03-23T09:18:12;93646.97;;;7.81;95.42
27643;BME280;15053;48.618;10.024;2024-03-23T09:20:38;93624.91;;;7.83;97.61
27643;BME280;15053;48.618;10.024;2024-03-23T09:23:04;93630.25;;;8.05;98.13
27643;BME280;15053;48.618;10.024;2024-03-23T09:25:29;93638.00;;;8.38;97.61
27643;BME280;15053;48.618;10.024;2024-03-23T09:27:55;93650.69;;;8.53;94.04
27643;BME280;15053;48.618;10.024;2024-03-23T09:30:20;93675.84;;;8.39;91.75
27643;BME280;15053;48.618;10.024;2024-03-23T09:32:46;93678.38;;;8.11;91.19
27643;BME280;15053;48.618;10.024;2024-03-23T09:35:12;93681.41;;;8.00;91.43
27643;BME280;15053;48.618;10.024;2024-03-23T09:37:40;93688.38;;;7.86;89.00
27643;BME280;15053;48.618;10.024;2024-03-23T09:40:10;93688.47;;;7.81;88.41
27643;BME280;15053;48.618;10.024;2024-03-23T09:42:37;93696.88;;;7.72;87.16
27643;BME280;15053;48.618;10.024;2024-03-23T09:45:05;93668.25;;;7.64;88.06
27643;BME280;15053;48.618;10.024;2024-03-23T09:47:33;93661.72;;;7.66;86.86
27643;BME280;15053;48.618;10.024;2024-03-23T09:50:00;93670.69;;;7.74;87.07
27643;BME280;15053;48.618;10.024;2024-03-23T09:52:26;93661.53;;;7.95;85.53
27643;BME280;15053;48.618;10.024;2024-03-23T09:54:51;93674.97;;;7.97;85.82
27643;BME280;15053;48.618;10.024;2024-03-23T09:57:17;93683.81;;;7.96;83.76
27643;BME280;15053;48.618;10.024;2024-03-23T09:59:43;93699.94;;;7.93;84.13
27643;BME280;15053;48.618;10.024;2024-03-23T10:02:09;93689.72;;;7.83;81.02
27643;BME280;15053;48.618;10.024;2024-03-23T10:04:42;93707.09;;;7.64;81.38
27643;BME280;15053;48.618;10.024;2024-03-23T10:09:39;93698.78;;;7.67;82.94
27643;BME280;15053;48.618;10.024;2024-03-23T10:12:12;93711.66;;;7.72;83.10
27643;BME280;15053;48.618;10.024;2024-03-23T10:14:42;93683.31;;;7.94;84.22
27643;BME280;15053;48.618;10.024;2024-03-23T10:17:18;93673.22;;;8.25;83.55
27643;BME280;15053;48.618;10.024;2024-03-23T10:19:45;93656.16;;;8.38;81.89
27643;BME280;15053;48.618;10.024;2024-03-23T10:22:21;93646.75;;;8.55;84.71
27643;BME280;15053;48.618;10.024;2024-03-23T10:24:47;93644.91;;;8.83;84.14
27643;BME280;15053;48.618;10.024;2024-03-23T10:27:20;93631.72;;;8.93;80.18
27643;BME280;15053;48.618;10.024;2024-03-23T10:29:46;93640.34;;;9.02;77.90
27643;BME280;15053;48.618;10.024;2024-03-23T10:32:14;93640.66;;;9.01;78.69
27643;BME280;15053;48.618;10.024;2024-03-23T10:34:39;93625.13;;;9.09;79.66
27643;BME280;15053;48.618;10.024;2024-03-23T10:37:06;93640.09;;;9.26;76.97
27643;BME280;15053;48.618;10.024;2024-03-23T10:39:34;93631.22;;;9.40;78.83
27643;BME280;15053;48.618;10.024;2024-03-23T10:42:02;93620.41;;;9.47;77.33
27643;BME280;15053;48.618;10.024;2024-03-23T10:44:29;93629.72;;;9.48;75.46
27643;BME280;15053;48.618;10.024;2024-03-23T10:47:00;93641.63;;;9.63;76.50
27643;BME280;15053;48.618;10.024;2024-03-23T10:49:30;93610.09;;;9.78;73.84
27643;BME280;15053;48.618;10.024;2024-03-23T10:52:05;93624.53;;;9.70;72.62
27643;BME280;15053;48.618;10.024;2024-03-23T10:54:31;93639.38;;;9.70;71.58
27643;BME280;15053;48.618;10.024;2024-03-23T10:57:06;93648.53;;;9.67;69.30
27643;BME280;15053;48.618;10.024;2024-03-23T10:59:34;93657.94;;;9.55;69.07
27643;BME280;15053;48.618;10.024;2024-03-23T11:02:02;93674.34;;;9.41;69.25
27643;BME280;15053;48.618;10.024;2024-03-23T11:04:32;93683.88;;;9.32;68.60
27643;BME280;15053;48.618;10.024;2024-03-23T11:06:58;93703.91;;;9.18;68.62
27643;BME280;15053;48.618;10.024;2024-03-23T11:09:41;93689.22;;;9.14;68.58
27643;BME280;15053;48.618;10.024;2024-03-23T11:14:47;93675.88;;;10.09;68.97
27643;BME280;15053;48.618;10.024;2024-03-23T11:17:23;93674.25;;;10.44;68.66
27643;BME280;15053;48.618;10.024;2024-03-23T11:22:44;93676.84;;;10.35;63.28
27643;BME280;15053;48.618;10.024;2024-03-23T11:25:21;93677.44;;;10.32;63.04
27643;BME280;15053;48.618;10.024;2024-03-23T11:27:49;93669.53;;;10.46;61.51
27643;BME280;15053;48.618;10.024;2024-03-23T11:30:19;93677.31;;;10.77;63.42
27643;BME280;15053;48.618;10.024;2024-03-23T11:32:46;93677.53;;;10.97;61.10
27643;BME280;15053;48.618;10.024;2024-03-23T11:35:31;93660.22;;;10.93;60.84
27643;BME280;15053;48.618;10.024;2024-03-23T11:38:09;93676.63;;;11.02;58.20
27643;BME280;15053;48.618;10.024;2024-03-23T11:40:42;93687.53;;;11.21;59.43
27643;BME280;15053;48.618;10.024;2024-03-23T11:43:13;93691.69;;;11.22;57.57
27643;BME280;15053;48.618;10.024;2024-03-23T11:45:42;93699.19;;;11.15;59.85
27643;BME280;15053;48.618;10.024;2024-03-23T11:48:19;93738.31;;;11.32;60.09
27643;BME280;15053;48.618;10.024;2024-03-23T11:50:47;93707.06;;;10.84;56.92
27643;BME280;15053;48.618;10.024;2024-03-23T11:53:21;93738.34;;;10.31;60.03
27643;BME280;15053;48.618;10.024;2024-03-23T11:55:52;93746.13;;;9.87;63.33
27643;BME280;15053;48.618;10.024;2024-03-23T11:58:19;93763.97;;;9.30;67.15
27643;BME280;15053;48.618;10.024;2024-03-23T12:00:59;93770.19;;;8.75;72.70
27643;BME280;15053;48.618;10.024;2024-03-23T12:03:26;93786.56;;;8.24;75.86
27643;BME280;15053;48.618;10.024;2024-03-23T12:05:54;93795.56;;;7.76;79.52
27643;BME280;15053;48.618;10.024;2024-03-23T12:10:52;93810.38;;;6.86;84.61
27643;BME280;15053;48.618;10.024;2024-03-23T12:13:20;93798.31;;;6.47;85.77
27643;BME280;15053;48.618;10.024;2024-03-23T12:15:47;93789.19;;;6.21;88.05
27643;BME280;15053;48.618;10.024;2024-03-23T12:18:13;93783.44;;;6.29;90.33
27643;BME280;15053;48.618;10.024;2024-03-23T12:20:38;93770.03;;;6.56;91.96
27643;BME280;15053;48.618;10.024;2024-03-23T12:23:05;93777.50;;;6.86;91.03
27643;BME280;15053;48.618;10.024;2024-03-23T12:25:31;93765.91;;;7.45;93.05
27643;BME280;15053;48.618;10.024;2024-03-23T12:28:00;93754.47;;;7.88;90.24
27643;BME280;15053;48.618;10.024;2024-03-23T12:30:26;93767.63;;;7.92;85.20
27643;BME280;15053;48.618;10.024;2024-03-23T12:32:51;93769.97;;;8.25;87.45
27643;BME280;15053;48.618;10.024;2024-03-23T12:35:17;93769.88;;;8.63;85.20
27643;BME280;15053;48.618;10.024;2024-03-23T12:37:43;93757.00;;;8.71;80.50
27643;BME280;15053;48.618;10.024;2024-03-23T12:40:09;93771.25;;;8.74;80.39
27643;BME280;15053;48.618;10.024;2024-03-23T12:42:35;93762.06;;;8.49;81.21
27643;BME280;15053;48.618;10.024;2024-03-23T12:45:00;93771.75;;;8.44;81.29
27643;BME280;15053;48.618;10.024;2024-03-23T12:47:26;93773.41;;;8.40;78.56
27643;BME280;15053;48.618;10.024;2024-03-23T12:49:52;93768.66;;;8.74;79.36
27643;BME280;15053;48.618;10.024;2024-03-23T12:52:18;93763.88;;;9.08;75.22
27643;BME280;15053;48.618;10.024;2024-03-23T12:54:45;93760.97;;;8.96;72.46
27643;BME280;15053;48.618;10.024;2024-03-23T12:57:10;93757.91;;;8.80;73.98
27643;BME280;15053;48.618;10.024;2024-03-23T12:59:36;93772.28;;;8.59;73.28
27643;BME280;15053;48.618;10.024;2024-03-23T13:02:02;93779.72;;;8.34;69.33
27643;BME280;15053;48.618;10.024;2024-03-23T13:04:28;93770.97;;;7.92;70.58
27643;BME280;15053;48.618;10.024;2024-03-23T13:06:53;93771.22;;;7.77;71.16
27643;BME280;15053;48.618;10.024;2024-03-23T13:09:19;93772.97;;;7.63;69.92
27643;BME280;15053;48.618;10.024;2024-03-23T13:11:44;93774.91;;;7.52;70.43
27643;BME280;15053;48.618;10.024;2024-03-23T13:14:10;93767.97;;;7.48;72.17
27643;BME280;15053;48.618;10.024;2024-03-23T13:16:35;93768.50;;;7.45;72.08
27643;BME280;15053;48.618;10.024;2024-03-23T13:19:01;93765.56;;;7.33;72.94
27643;BME280;15053;48.618;10.024;2024-03-23T13:21:26;93755.84;;;7.25;71.76
27643;BME280;15053;48.618;10.024;2024-03-23T13:23:52;93749.41;;;7.22;70.47
27643;BME280;15053;48.618;10.024;2024-03-23T13:26:18;93741.13;;;7.20;71.49
27643;BME280;15053;48.618;10.024;2024-03-23T13:28:43;93728.41;;;7.42;71.74
27643;BME280;15053;48.618;10.024;2024-03-23T13:31:10;93727.34;;;7.99;70.62
27643;BME280;15053;48.618;10.024;2024-03-23T13:33:36;93721.22;;;8.41;69.66
27643;BME280;15053;48.618;10.024;2024-03-23T13:36:02;93719.63;;;8.86;68.47
27643;BME280;15053;48.618;10.024;2024-03-23T13:38:28;93702.56;;;9.21;67.63
27643;BME280;15053;48.618;10.024;2024-03-23T13:40:55;93693.16;;;9.61;65.26
27643;BME280;15053;48.618;10.024;2024-03-23T13:43:22;93697.53;;;9.74;63.71
27643;BME280;15053;48.618;10.024;2024-03-23T13:45:52;93690.13;;;9.67;63.84
27643;BME280;15053;48.618;10.024;2024-03-23T13:48:20;93682.41;;;9.76;64.03
27643;BME280;15053;48.618;10.024;2024-03-23T13:50:46;93689.16;;;9.99;62.65
27643;BME280;15053;48.618;10.024;2024-03-23T13:53:14;93682.41;;;10.20;63.43
27643;BME280;15053;48.618;10.024;2024-03-23T13:55:48;93691.44;;;10.45;62.05
27643;BME280;15053;48.618;10.024;2024-03-23T13:58:15;93672.78;;;10.51;60.58
27643;BME280;15053;48.618;10.024;2024-03-23T14:00:40;93673.28;;;10.31;60.68
27643;BME280;15053;48.618;10.024;2024-03-23T14:03:08;93673.03;;;9.88;61.57